createdAt,value
2019-06-10T00:00:01.494Z,1.57
2019-06-10T00:05:07.240Z,1.50
2019-06-10T00:10:11.630Z,1.60
2019-06-10T00:15:15.643Z,1.40
2019-06-10T00:20:21.577Z,1.70
2019-06-10T00:25:25.627Z,1.83
2019-06-10T00:30:31.329Z,1.20
2019-06-10T00:35:35.730Z,1.60
2019-06-10T00:40:41.558Z,1.50
2019-06-10T00:45:46.159Z,1.50
2019-06-10T00:50:51.831Z,1.47
2019-06-10T00:55:56.004Z,1.80
2019-06-10T01:01:01.144Z,1.40
2019-06-10T01:06:06.488Z,1.60
2019-06-10T01:11:20.278Z,1.30
2019-06-10T01:16:16.839Z,1.57
2019-06-10T01:21:21.874Z,2.00
2019-06-10T01:26:26.381Z,1.57
2019-06-10T01:31:31.751Z,1.80
2019-06-10T01:36:35.851Z,2.10
2019-06-10T01:41:40.920Z,1.40
2019-06-10T01:46:44.979Z,1.67
2019-06-10T01:51:51.547Z,1.90
2019-06-10T01:56:55.894Z,1.60
2019-06-10T02:02:07.005Z,1.50
2019-06-10T02:07:13.865Z,1.67
2019-06-10T02:12:19.242Z,1.73
2019-06-10T02:17:24.367Z,1.50
2019-06-10T02:22:28.667Z,2.03
2019-06-10T02:27:33.343Z,1.33
2019-06-10T02:32:38.222Z,1.77
2019-06-10T02:37:44.587Z,1.43
2019-06-10T02:42:53.824Z,1.70
2019-06-10T02:47:57.423Z,1.30
2019-06-10T02:53:04.064Z,1.97
2019-06-10T02:58:07.923Z,2.20
2019-06-10T03:03:14.115Z,2.07
2019-06-10T03:08:18.557Z,1.90
2019-06-10T03:13:25.520Z,1.83
2019-06-10T03:18:29.303Z,1.83
2019-06-10T03:23:33.636Z,2.40
2019-06-10T03:28:38.501Z,1.80
2019-06-10T03:33:47.620Z,1.77
2019-06-10T03:38:49.162Z,1.60
2019-06-10T03:43:53.235Z,1.67
2019-06-10T03:48:57.586Z,1.73
2019-06-10T03:54:02.497Z,1.77
2019-06-10T03:59:07.402Z,1.83
2019-06-10T04:04:13.154Z,1.93
2019-06-10T04:09:17.948Z,1.93
2019-06-10T04:14:25.072Z,2.10
2019-06-10T04:19:28.780Z,2.13
2019-06-10T04:24:33.114Z,1.80
2019-06-10T04:29:37.788Z,1.90
2019-06-10T04:34:43.319Z,1.70
2019-06-10T04:39:47.854Z,1.80
2019-06-10T04:44:52.621Z,1.60
2019-06-10T04:49:56.679Z,2.30
2019-06-10T04:55:02.604Z,2.37
2019-06-10T05:00:13.908Z,1.80
2019-06-10T05:05:14.256Z,2.00
2019-06-10T05:10:19.134Z,1.63
2019-06-10T05:15:24.894Z,2.07
2019-06-10T05:20:46.761Z,1.53
2019-06-10T05:25:35.585Z,2.10
2019-06-10T05:30:42.657Z,1.80
2019-06-10T05:35:46.662Z,2.10
2019-06-10T05:40:52.139Z,1.77
2019-06-10T05:45:56.651Z,1.50
2019-06-10T05:51:05.763Z,1.80
2019-06-10T05:56:06.711Z,1.67
2019-06-10T06:01:13.108Z,2.00
2019-06-10T06:06:17.115Z,2.30
2019-06-10T06:11:23.110Z,2.20
2019-06-10T06:16:27.787Z,1.97
2019-06-10T06:21:38.898Z,2.20
2019-06-10T06:26:39.672Z,1.57
2019-06-10T06:31:44.830Z,2.13
2019-06-10T06:36:49.232Z,1.97
2019-06-10T06:41:53.966Z,2.30
2019-06-10T06:46:58.039Z,2.10
2019-06-10T06:52:03.319Z,1.97
2019-06-10T06:57:08.473Z,2.50
2019-06-10T07:02:12.587Z,2.17
2019-06-10T07:07:19.178Z,1.90
2019-06-10T07:12:24.741Z,2.27
2019-06-10T07:17:29.958Z,2.67
2019-06-10T07:22:36.886Z,2.00
2019-06-10T07:27:45.094Z,2.00
2019-06-10T07:32:47.382Z,1.67
2019-06-10T07:37:52.400Z,2.60
2019-06-10T07:42:57.438Z,2.27
2019-06-10T07:48:02.844Z,2.60
2019-06-10T07:53:07.683Z,2.87
2019-06-10T07:58:12.998Z,2.17
2019-06-10T08:03:17.861Z,2.20
2019-06-10T08:08:23.525Z,2.60
2019-06-10T08:13:27.692Z,2.90
2019-06-10T08:18:38.361Z,2.97
2019-06-10T08:23:38.581Z,3.53
2019-06-10T08:28:46.455Z,2.93
2019-06-10T08:33:49.423Z,3.43
2019-06-10T08:38:53.670Z,3.30
2019-06-10T08:43:57.758Z,3.27
2019-06-10T08:49:03.182Z,3.40
2019-06-10T08:54:07.435Z,3.30
2019-06-10T08:59:12.420Z,3.23
2019-06-10T09:04:16.482Z,2.87
2019-06-10T09:09:22.603Z,3.40
2019-06-10T09:14:26.383Z,3.87
2019-06-10T09:19:33.032Z,3.90
2019-06-10T09:24:37.663Z,3.43
2019-06-10T09:29:47.397Z,3.37
2019-06-10T09:34:52.272Z,3.77
2019-06-10T09:39:59.396Z,3.97
2019-06-10T09:45:02.603Z,3.77
2019-06-10T09:50:08.662Z,4.27
2019-06-10T09:55:14.186Z,3.80
2019-06-10T10:00:28.528Z,2.93
2019-06-10T10:05:33.817Z,3.47
2019-06-10T10:10:37.964Z,3.27
2019-06-10T10:15:43.511Z,3.10
2019-06-10T10:20:50.238Z,3.30
2019-06-10T10:25:56.990Z,3.27
2019-06-10T10:31:04.479Z,2.73
2019-06-10T10:36:07.675Z,2.50
2019-06-10T10:41:13.415Z,2.97
2019-06-10T10:46:18.323Z,2.80
2019-06-10T10:51:23.284Z,3.73
2019-06-10T10:56:27.535Z,3.80
2019-06-10T11:01:33.308Z,3.60
2019-06-10T11:12:18.150Z,3.20
2019-06-10T11:17:24.375Z,3.27
2019-06-10T11:22:29.427Z,3.93
2019-06-10T11:27:33.499Z,3.63
2019-06-10T11:32:38.112Z,2.93
2019-06-10T11:37:42.842Z,3.73
2019-06-10T11:42:48.301Z,3.47
2019-06-10T11:47:54.949Z,2.97
2019-06-10T11:53:01.352Z,2.50
2019-06-10T11:58:04.826Z,3.10
2019-06-10T12:03:08.883Z,3.07
2019-06-10T12:08:13.580Z,3.77
2019-06-10T12:13:17.497Z,4.00
2019-06-10T12:18:22.984Z,3.30
2019-06-10T12:23:27.581Z,3.63
2019-06-10T12:28:32.694Z,3.30
2019-06-10T12:33:37.270Z,3.63
2019-06-10T12:38:43.402Z,3.57
2019-06-10T12:43:47.502Z,3.70
2019-06-10T12:48:54.923Z,3.57
2019-06-10T12:53:59.444Z,3.37
2019-06-10T12:59:09.627Z,3.60
2019-06-10T13:04:13.562Z,2.90
2019-06-10T13:09:17.034Z,4.07
2019-06-10T13:14:22.083Z,3.23
2019-06-10T13:19:26.334Z,3.30
2019-06-10T13:24:33.122Z,3.30
2019-06-10T13:29:37.067Z,3.90
2019-06-10T13:34:42.506Z,3.50
2019-06-10T13:39:46.980Z,3.33
2019-06-10T13:44:52.293Z,4.47
2019-06-10T13:49:58.970Z,4.60
2019-06-10T13:55:07.098Z,3.40
2019-06-10T14:00:11.688Z,3.97
2019-06-10T14:05:18.326Z,3.40
2019-06-10T14:10:22.648Z,3.90
2019-06-10T14:15:26.999Z,3.70
2019-06-10T14:20:32.553Z,2.90
2019-06-10T14:25:37.375Z,3.50
2019-06-10T14:30:43.083Z,3.90
2019-06-10T14:35:47.551Z,3.80
2019-06-10T14:40:52.618Z,3.67
2019-06-10T14:45:57.514Z,3.70
2019-06-10T14:51:03.397Z,3.53
2019-06-10T14:56:09.625Z,4.10
2019-06-10T15:01:23.990Z,3.83
2019-06-10T15:06:20.659Z,4.43
2019-06-10T15:11:27.699Z,4.27
2019-06-10T15:16:33.643Z,3.77
2019-06-10T15:21:37.821Z,3.43
2019-06-10T15:26:42.366Z,3.50
2019-06-10T15:31:46.537Z,3.40
2019-06-10T15:36:52.736Z,3.93
2019-06-10T15:41:56.927Z,3.30
2019-06-10T15:47:03.196Z,3.83
2019-06-10T15:52:07.676Z,3.90
2019-06-10T15:57:26.438Z,4.33
2019-06-10T16:02:19.464Z,3.60
2019-06-10T16:07:25.610Z,3.20
2019-06-10T16:12:32.906Z,3.20
2019-06-10T16:17:35.859Z,3.07
2019-06-10T16:22:42.691Z,2.63
2019-06-10T16:27:50.889Z,3.30
2019-06-10T16:32:52.991Z,2.97
2019-06-10T16:37:57.625Z,3.20
2019-06-10T16:43:01.984Z,3.10
2019-06-10T16:48:06.390Z,3.57
2019-06-10T16:53:13.424Z,3.37
2019-06-10T16:58:18.308Z,3.20
2019-06-10T17:03:26.437Z,3.60
2019-06-10T17:08:30.280Z,3.23
2019-06-10T17:13:34.873Z,3.00
2019-06-10T17:18:39.424Z,3.57
2019-06-10T17:23:43.547Z,3.80
2019-06-10T17:28:47.615Z,3.53
2019-06-10T17:33:53.135Z,3.90
2019-06-10T17:38:58.050Z,4.40
2019-06-10T17:44:02.756Z,3.60
2019-06-10T17:49:08.228Z,3.73
2019-06-10T17:54:13.147Z,3.20
2019-06-10T17:59:17.770Z,3.80
2019-06-10T18:04:23.822Z,3.47
2019-06-10T18:09:30.273Z,3.90
2019-06-10T18:14:36.211Z,3.30
2019-06-10T18:19:43.148Z,2.90
2019-06-10T18:24:47.006Z,3.40
2019-06-10T18:29:51.279Z,3.63
2019-06-10T18:34:55.683Z,4.13
2019-06-10T18:40:02.832Z,3.90
2019-06-10T18:45:07.791Z,3.13
2019-06-10T18:50:12.798Z,3.37
2019-06-10T18:55:17.604Z,2.40
2019-06-10T19:00:23.075Z,4.33
2019-06-10T19:05:28.535Z,3.50
2019-06-10T19:10:34.294Z,4.23
2019-06-10T19:15:42.478Z,3.57
2019-06-10T19:20:45.560Z,3.70
2019-06-10T19:25:52.189Z,2.77
2019-06-10T19:30:55.599Z,3.50
2019-06-10T19:36:02.089Z,3.83
2019-06-10T19:41:05.935Z,2.87
2019-06-10T19:46:12.743Z,3.27
2019-06-10T19:51:16.199Z,3.57
2019-06-10T19:56:24.218Z,3.07
2019-06-10T20:01:27.250Z,3.20
2019-06-10T20:06:32.358Z,2.77
2019-06-10T20:11:38.225Z,2.67
2019-06-10T20:16:45.948Z,3.40
2019-06-10T20:21:50.124Z,3.23
2019-06-10T20:26:54.866Z,2.70
2019-06-10T20:31:59.203Z,2.90
2019-06-10T20:37:04.657Z,3.40
2019-06-10T20:42:09.238Z,2.73
2019-06-10T20:47:14.249Z,3.40
2019-06-10T20:52:18.758Z,2.70
2019-06-10T20:57:23.098Z,2.47
2019-06-10T21:02:27.781Z,2.83
2019-06-10T21:07:33.139Z,3.17
2019-06-10T21:12:37.435Z,2.80
2019-06-10T21:17:44.273Z,2.73
2019-06-10T21:22:49.024Z,2.50
2019-06-10T21:27:54.217Z,3.17
2019-06-10T21:32:59.022Z,3.27
2019-06-10T21:38:04.030Z,3.30
2019-06-10T21:43:08.427Z,2.77
2019-06-10T21:48:12.743Z,2.43
2019-06-10T21:53:17.351Z,2.90
2019-06-10T21:58:22.492Z,2.40
2019-06-10T22:03:26.735Z,3.50
2019-06-10T22:08:33.349Z,2.80
2019-06-10T22:13:37.455Z,2.73
2019-06-10T22:18:41.801Z,2.77
2019-06-10T22:23:46.691Z,3.10
2019-06-10T22:28:54.139Z,2.90
2019-06-10T22:33:57.785Z,3.17
2019-06-10T22:39:03.194Z,3.30
2019-06-10T22:44:07.416Z,3.23
2019-06-10T22:49:13.512Z,3.03
2019-06-10T22:54:17.698Z,3.13
2019-06-10T22:59:22.914Z,2.90
2019-06-10T23:04:27.353Z,3.80
2019-06-10T23:09:31.855Z,3.70
2019-06-10T23:14:36.491Z,3.40
2019-06-10T23:19:42.743Z,3.87
2019-06-10T23:24:46.986Z,3.90
2019-06-10T23:29:53.995Z,3.80
2019-06-10T23:34:58.218Z,3.73
2019-06-10T23:40:04.515Z,4.40
2019-06-10T23:45:09.063Z,4.00
2019-06-10T23:50:13.766Z,4.77
2019-06-10T23:55:18.043Z,3.77
